Time;durP1;ratioP1;P1;durP2;ratioP2;P2;SDS_P1;SDS_P2;PMS_P1;PMS_P2;Temp;Humidity;BMP_temperature;BMP_pressure;BME280_temperature;BME280_humidity;BME280_pressure;Samples;Min_cycle;Max_cycle;Signal;HPM_P1;HPM_P2
2021/05/20 00:00:24;;;;;;;10.10;7.30;;;8.70;99.90;;;;;;5117865;27;20481;-72
2021/05/20 00:02:51;;;;;;;9.10;5.90;;;8.60;99.90;;;;;;5112892;28;20760;-72
2021/05/20 00:05:18;;;;;;;7.80;6.10;;;8.60;99.90;;;;;;5114811;27;20910;-72
2021/05/20 00:07:46;;;;;;;8.03;7.20;;;8.50;99.90;;;;;;5120266;27;20490;-72
2021/05/20 00:10:14;;;;;;;7.93;6.23;;;8.50;99.90;;;;;;5119459;27;20855;-72
2021/05/20 00:12:43;;;;;;;7.63;6.73;;;8.50;99.90;;;;;;5119121;27;20859;-72
2021/05/20 00:15:10;;;;;;;9.27;7.17;;;8.50;99.90;;;;;;5119029;27;20504;-72
2021/05/20 00:17:40;;;;;;;7.80;6.50;;;8.50;99.90;;;;;;5104840;28;20460;-72
2021/05/20 00:20:08;;;;;;;8.60;6.90;;;8.40;99.90;;;;;;5111319;27;20807;-72
2021/05/20 00:22:35;;;;;;;8.13;6.80;;;8.40;99.90;;;;;;5117785;27;20473;-72
2021/05/20 00:25:03;;;;;;;9.00;6.40;;;8.30;99.90;;;;;;5119478;27;20907;-72
2021/05/20 00:27:30;;;;;;;12.50;6.63;;;8.30;99.90;;;;;;5112863;27;20548;-72
2021/05/20 00:29:57;;;;;;;10.03;6.33;;;8.30;99.90;;;;;;5098776;28;20731;-72
2021/05/20 00:32:29;;;;;;;10.30;6.50;;;8.30;99.90;;;;;;5113224;28;20753;-72
2021/05/20 00:34:57;;;;;;;7.93;6.27;;;8.30;99.90;;;;;;5117483;27;20447;-72
2021/05/20 00:37:24;;;;;;;9.83;6.63;;;8.20;99.90;;;;;;5118909;27;20435;-71
2021/05/20 00:39:52;;;;;;;7.97;6.33;;;8.10;99.90;;;;;;5118173;27;20463;-72
2021/05/20 00:42:20;;;;;;;9.50;7.43;;;8.10;99.90;;;;;;5118705;27;20443;-73
2021/05/20 00:44:54;;;;;;;10.80;7.90;;;8.20;99.90;;;;;;5119243;27;20890;-73
2021/05/20 00:47:21;;;;;;;12.57;7.23;;;8.20;99.90;;;;;;5119259;27;20581;-72
2021/05/20 00:49:49;;;;;;;10.47;7.23;;;8.10;99.90;;;;;;5117085;27;20446;-72
2021/05/20 00:52:16;;;;;;;9.00;6.73;;;8.10;99.90;;;;;;5119139;27;21015;-72
2021/05/20 00:54:44;;;;;;;9.37;7.20;;;8.00;99.90;;;;;;5112386;27;20466;-72
2021/05/20 00:57:12;;;;;;;9.83;6.87;;;8.00;99.90;;;;;;5110651;27;20537;-72
2021/05/20 00:59:40;;;;;;;9.37;6.80;;;8.00;99.90;;;;;;5118821;27;20454;-72
2021/05/20 01:02:07;;;;;;;10.13;7.90;;;8.10;99.90;;;;;;5118363;27;20745;-72
2021/05/20 01:04:34;;;;;;;10.80;7.40;;;8.00;99.90;;;;;;5108632;27;20477;-72
2021/05/20 01:07:01;;;;;;;12.70;7.60;;;8.00;99.90;;;;;;5111134;27;20498;-72
2021/05/20 01:09:28;;;;;;;9.23;7.17;;;7.90;99.90;;;;;;5118450;27;20450;-72
2021/05/20 01:11:56;;;;;;;9.83;6.83;;;7.90;99.90;;;;;;5115889;27;20450;-72
2021/05/20 01:14:23;;;;;;;12.93;7.20;;;7.90;99.90;;;;;;5108160;27;20456;-72
2021/05/20 01:16:50;;;;;;;9.90;6.87;;;8.00;99.90;;;;;;5097963;28;20479;-72
2021/05/20 01:19:17;;;;;;;11.23;6.87;;;8.00;99.90;;;;;;5107927;28;20455;-72
2021/05/20 01:21:45;;;;;;;9.33;7.40;;;7.90;99.90;;;;;;5097416;28;20448;-72
2021/05/20 01:24:13;;;;;;;8.80;6.73;;;7.90;99.90;;;;;;5097831;28;20740;-72
2021/05/20 01:26:40;;;;;;;13.90;7.20;;;7.90;99.90;;;;;;5114751;27;20490;-72
2021/05/20 01:29:07;;;;;;;13.90;7.90;;;7.80;99.90;;;;;;5109166;28;20462;-72
2021/05/20 01:31:35;;;;;;;11.53;7.47;;;7.80;99.90;;;;;;5107633;27;20458;-72
2021/05/20 01:34:02;;;;;;;10.47;7.73;;;7.80;99.90;;;;;;5117580;27;20467;-72
2021/05/20 01:36:30;;;;;;;12.53;7.80;;;7.70;99.90;;;;;;5117817;27;20481;-72
2021/05/20 01:39:00;;;;;;;11.07;8.10;;;7.60;99.90;;;;;;5098336;28;20456;-72
2021/05/20 01:41:28;;;;;;;10.07;7.13;;;7.60;99.90;;;;;;5108379;27;20910;-72
2021/05/20 01:43:55;;;;;;;11.90;8.33;;;7.50;99.90;;;;;;5111279;27;20954;-72
2021/05/20 01:46:24;;;;;;;9.43;7.40;;;7.60;99.90;;;;;;5117231;27;20475;-72
2021/05/20 01:48:52;;;;;;;10.80;8.30;;;7.60;99.90;;;;;;5117971;27;20520;-72
2021/05/20 01:51:25;;;;;;;10.90;8.20;;;7.60;99.90;;;;;;5110275;27;20504;-72
2021/05/20 01:53:55;;;;;;;9.90;7.40;;;7.60;99.90;;;;;;5097527;28;20448;-72
2021/05/20 01:56:24;;;;;;;8.87;6.83;;;7.60;99.90;;;;;;5097793;28;20493;-72
2021/05/20 01:58:51;;;;;;;10.70;7.30;;;7.70;99.90;;;;;;5097864;28;20546;-72
2021/05/20 02:01:18;;;;;;;8.80;7.47;;;7.60;99.90;;;;;;5098568;28;20562;-72
2021/05/20 02:03:46;;;;;;;11.70;7.70;;;7.60;99.90;;;;;;5097122;28;21043;-72
2021/05/20 02:06:13;;;;;;;8.10;6.33;;;7.50;99.90;;;;;;5110104;27;20544;-72
2021/05/20 02:08:40;;;;;;;10.53;7.50;;;7.40;99.90;;;;;;5117153;27;20519;-72
2021/05/20 02:11:07;;;;;;;9.30;7.20;;;7.40;99.90;;;;;;5117452;27;20462;-72
2021/05/20 02:13:36;;;;;;;8.83;6.37;;;7.40;99.90;;;;;;5117364;27;20692;-72
2021/05/20 02:16:04;;;;;;;11.03;6.40;;;7.50;99.90;;;;;;5118439;27;20748;-72
2021/05/20 02:18:31;;;;;;;8.63;6.50;;;7.40;99.90;;;;;;5116501;27;20451;-72
2021/05/20 02:20:58;;;;;;;8.47;5.93;;;7.40;99.90;;;;;;5107899;27;20463;-72
2021/05/20 02:23:25;;;;;;;10.47;7.27;;;7.40;99.90;;;;;;5117315;27;20455;-72
2021/05/20 02:25:52;;;;;;;10.67;6.53;;;7.30;99.90;;;;;;5104855;28;20451;-72
2021/05/20 02:28:20;;;;;;;9.13;6.73;;;7.50;99.90;;;;;;5096949;28;20542;-72
2021/05/20 02:30:48;;;;;;;11.50;6.80;;;7.50;99.90;;;;;;5097661;28;20516;-72
2021/05/20 02:33:15;;;;;;;8.00;5.90;;;7.40;99.90;;;;;;5097065;28;20444;-72
2021/05/20 02:35:42;;;;;;;11.60;6.67;;;7.40;99.90;;;;;;5097174;28;20559;-72
2021/05/20 02:38:09;;;;;;;8.20;6.90;;;7.40;99.90;;;;;;5099496;28;20527;-72
2021/05/20 02:40:36;;;;;;;8.17;6.50;;;7.50;99.90;;;;;;5112908;27;20911;-72
2021/05/20 02:43:04;;;;;;;7.90;6.17;;;7.50;99.90;;;;;;5118011;27;20451;-71
2021/05/20 02:45:40;;;;;;;9.07;6.90;;;7.50;99.90;;;;;;5116316;28;20455;-71
2021/05/20 02:48:16;;;;;;;8.70;6.87;;;7.60;99.90;;;;;;5116040;28;21053;-71
2021/05/20 02:50:47;;;;;;;9.70;6.93;;;7.60;99.90;;;;;;5096602;28;20462;-72
2021/05/20 02:53:17;;;;;;;17.30;7.53;;;7.70;99.90;;;;;;5096503;28;20460;-71
2021/05/20 02:55:47;;;;;;;8.80;6.70;;;7.60;99.90;;;;;;5096868;28;20872;-73
2021/05/20 02:58:17;;;;;;;8.67;6.50;;;7.60;99.90;;;;;;5097641;28;20459;-72
2021/05/20 03:00:46;;;;;;;13.17;6.27;;;7.60;99.90;;;;;;5096540;28;20470;-72
2021/05/20 03:03:14;;;;;;;10.93;7.13;;;7.80;99.90;;;;;;5096548;28;20456;-72
2021/05/20 03:05:42;;;;;;;8.50;6.30;;;7.90;99.90;;;;;;5096268;28;20451;-72
2021/05/20 03:08:18;;;;;;;7.43;5.53;;;7.90;99.90;;;;;;5096627;28;20461;-72
2021/05/20 03:11:01;;;;;;;8.07;5.30;;;7.70;99.90;;;;;;5095838;28;20495;-72
2021/05/20 03:13:28;;;;;;;6.60;5.13;;;7.70;99.90;;;;;;5095522;28;20455;-72
2021/05/20 03:15:55;;;;;;;11.53;6.13;;;7.60;99.90;;;;;;5095855;28;20464;-72
2021/05/20 03:18:23;;;;;;;13.03;6.13;;;7.60;99.90;;;;;;5099481;28;20455;-72
2021/05/20 03:20:50;;;;;;;8.33;5.20;;;7.60;99.90;;;;;;5119499;27;20466;-72
2021/05/20 03:23:18;;;;;;;7.50;5.90;;;7.70;99.90;;;;;;5119324;28;20458;-72
2021/05/20 03:25:45;;;;;;;7.30;5.53;;;7.70;99.90;;;;;;5118550;27;20466;-72
2021/05/20 03:28:12;;;;;;;7.17;5.90;;;7.70;99.90;;;;;;5119649;27;20707;-72
2021/05/20 03:30:39;;;;;;;9.20;6.17;;;7.80;99.90;;;;;;5119460;27;20459;-72
2021/05/20 03:33:06;;;;;;;7.63;5.47;;;7.70;99.90;;;;;;5119836;27;20781;-72
2021/05/20 03:35:38;;;;;;;9.50;6.13;;;7.70;99.90;;;;;;5119983;27;20519;-72
2021/05/20 03:38:06;;;;;;;9.73;6.50;;;7.70;99.90;;;;;;5133052;27;20719;-72
2021/05/20 03:40:35;;;;;;;7.93;5.90;;;7.70;99.90;;;;;;5120247;27;20493;-72
2021/05/20 03:43:02;;;;;;;8.83;6.73;;;7.70;99.90;;;;;;5118944;28;20443;-72
2021/05/20 03:45:31;;;;;;;8.60;5.80;;;7.70;99.90;;;;;;5118062;27;20470;-71
2021/05/20 03:47:58;;;;;;;8.77;6.37;;;7.70;99.90;;;;;;5119510;27;20490;-72
2021/05/20 03:50:26;;;;;;;8.30;6.27;;;7.70;99.90;;;;;;5119654;27;20459;-72
2021/05/20 03:52:59;;;;;;;7.90;6.00;;;7.70;99.90;;;;;;5119150;27;20457;-72
2021/05/20 03:55:28;;;;;;;7.40;5.93;;;7.70;99.90;;;;;;5119286;27;20471;-71
2021/05/20 03:57:57;;;;;;;12.57;6.20;;;7.70;99.90;;;;;;5119564;27;20741;-72
2021/05/20 04:03:45;;;;;;;9.13;5.67;;;7.60;99.90;;;;;;5117285;27;20418;-72
2021/05/20 04:06:13;;;;;;;8.23;5.93;;;7.60;99.90;;;;;;5118918;27;20494;-72
2021/05/20 04:08:47;;;;;;;9.40;7.70;;;7.60;99.90;;;;;;5118190;28;20435;-72
2021/05/20 04:11:16;;;;;;;8.37;6.70;;;7.50;99.90;;;;;;5117817;28;20461;-71
2021/05/20 04:13:44;;;;;;;8.07;6.97;;;7.50;99.90;;;;;;5117534;28;20537;-72
2021/05/20 04:16:13;;;;;;;14.53;7.27;;;7.50;99.90;;;;;;5117748;28;20455;-72
2021/05/20 04:18:41;;;;;;;8.83;6.07;;;7.70;99.90;;;;;;5117881;28;20882;-71
2021/05/20 04:21:09;;;;;;;10.30;7.30;;;7.70;99.90;;;;;;5118193;27;20456;-72
2021/05/20 04:23:48;;;;;;;9.23;7.17;;;7.70;99.90;;;;;;5118769;27;20599;-72
2021/05/20 04:26:18;;;;;;;11.07;8.00;;;7.70;99.90;;;;;;5118844;27;20501;-72
2021/05/20 04:28:50;;;;;;;9.87;7.07;;;7.60;99.90;;;;;;5098203;28;20871;-73
2021/05/20 04:31:18;;;;;;;8.97;6.73;;;7.80;99.90;;;;;;5113610;27;20447;-72
2021/05/20 04:33:46;;;;;;;9.37;6.70;;;7.80;99.90;;;;;;5121366;27;20597;-72
2021/05/20 04:36:14;;;;;;;10.37;7.70;;;7.70;99.90;;;;;;5118067;27;20542;-72
2021/05/20 04:38:41;;;;;;;13.70;7.70;;;7.70;99.90;;;;;;5118342;27;20451;-72
2021/05/20 04:41:16;;;;;;;12.40;8.83;;;7.70;99.90;;;;;;5117296;28;20458;-72
2021/05/20 04:43:43;;;;;;;11.80;7.60;;;7.70;99.90;;;;;;5118520;28;20828;-71
2021/05/20 04:46:17;;;;;;;9.37;7.40;;;7.60;99.90;;;;;;5117356;28;20578;-72
2021/05/20 04:48:45;;;;;;;11.47;8.07;;;7.60;99.90;;;;;;5117308;28;20455;-71
2021/05/20 04:51:17;;;;;;;11.57;7.83;;;7.90;99.90;;;;;;5117387;28;20463;-72
2021/05/20 04:53:54;;;;;;;;;;;;;;;;;;;;;
2021/05/20 04:56:23;;;;;;;10.47;8.23;;;10.60;99.90;;;;;;5097795;28;20767;-72
2021/05/20 04:58:51;;;;;;;12.07;9.00;;;10.70;99.90;;;;;;5096779;28;20728;-72
2021/05/20 05:01:22;;;;;;;9.00;6.97;;;10.60;99.90;;;;;;5111468;27;20477;-72
2021/05/20 05:03:49;;;;;;;10.93;7.97;;;10.40;99.90;;;;;;5131562;27;20463;-72
2021/05/20 05:06:16;;;;;;;10.27;8.00;;;10.70;99.90;;;;;;5117507;27;20569;-72
2021/05/20 05:08:48;;;;;;;11.73;8.23;;;11.30;99.90;;;;;;5116860;27;20443;-72
2021/05/20 05:11:15;;;;;;;8.00;6.60;;;11.20;99.90;;;;;;5116794;28;20551;-72
2021/05/20 05:13:43;;;;;;;9.50;7.53;;;11.20;99.90;;;;;;5115800;28;20454;-72
2021/05/20 05:16:14;;;;;;;11.87;7.43;;;11.50;99.90;;;;;;5116745;28;20446;-72
2021/05/20 05:18:45;;;;;;;8.40;6.90;;;11.60;99.90;;;;;;5115374;28;20458;-71
2021/05/20 05:21:13;;;;;;;8.87;7.17;;;11.10;99.90;;;;;;5116039;27;20524;-71
2021/05/20 05:23:43;;;;;;;9.10;7.03;;;11.40;99.90;;;;;;5116520;27;20455;-72
2021/05/20 05:26:10;;;;;;;8.00;6.63;;;11.30;99.90;;;;;;5116135;27;20817;-72
2021/05/20 05:28:38;;;;;;;7.70;7.00;;;11.60;99.90;;;;;;5116552;27;20495;-72
2021/05/20 05:31:07;;;;;;;7.73;6.10;;;11.60;99.90;;;;;;5116386;27;20458;-72
2021/05/20 05:33:40;;;;;;;9.10;6.30;;;11.10;99.90;;;;;;5115678;27;20487;-71
2021/05/20 05:36:11;;;;;;;7.90;6.60;;;11.80;99.90;;;;;;5115881;27;20808;-72
2021/05/20 05:38:41;;;;;;;7.70;6.87;;;11.10;99.90;;;;;;5116472;27;20489;-71
2021/05/20 05:41:16;;;;;;;9.83;7.00;;;10.00;99.90;;;;;;5109513;27;21037;-71
2021/05/20 05:43:45;;;;;;;10.00;7.13;;;10.10;99.90;;;;;;5111489;27;20735;-71
2021/05/20 05:46:13;;;;;;;12.53;7.30;;;9.90;99.90;;;;;;5116318;27;20474;-70
2021/05/20 05:48:41;;;;;;;12.27;9.80;;;9.70;99.90;;;;;;5111267;27;20470;-71
2021/05/20 05:51:13;;;;;;;11.13;8.37;;;9.70;99.90;;;;;;5122295;27;20504;-71
2021/05/20 05:53:43;;;;;;;12.07;7.87;;;10.00;99.90;;;;;;5135867;27;20873;-71
2021/05/20 05:56:14;;;;;;;9.50;7.13;;;10.50;99.90;;;;;;5121956;27;20455;-71
2021/05/20 05:58:44;;;;;;;9.67;6.93;;;10.60;99.90;;;;;;5115961;27;20553;-71
2021/05/20 06:01:12;;;;;;;9.90;7.30;;;10.30;99.90;;;;;;5114325;28;20439;-71
2021/05/20 06:03:39;;;;;;;10.07;7.40;;;11.40;99.90;;;;;;5115646;28;20450;-72
2021/05/20 06:06:07;;;;;;;8.27;6.87;;;10.70;99.90;;;;;;5115413;28;20808;-72
2021/05/20 06:08:34;;;;;;;8.97;7.13;;;10.20;99.90;;;;;;5115251;27;20537;-72
2021/05/20 06:11:02;;;;;;;10.67;7.73;;;11.20;99.90;;;;;;5116103;27;20446;-71
2021/05/20 06:13:35;;;;;;;10.90;8.17;;;11.70;99.90;;;;;;5109835;27;20909;-71
2021/05/20 06:16:07;;;;;;;8.80;6.70;;;11.80;99.90;;;;;;5113503;28;20723;-71
2021/05/20 06:18:35;;;;;;;8.10;6.37;;;12.30;99.90;;;;;;5107517;27;20766;-71
2021/05/20 06:21:04;;;;;;;9.10;5.60;;;12.40;99.90;;;;;;5107962;28;20439;-71
2021/05/20 06:23:33;;;;;;;8.30;6.13;;;12.40;99.90;;;;;;5115818;27;20465;-71
2021/05/20 06:26:00;;;;;;;5.93;5.17;;;12.60;99.90;;;;;;5115244;28;20445;-71
2021/05/20 06:28:27;;;;;;;7.47;6.00;;;11.20;99.90;;;;;;5115757;28;20476;-71
2021/05/20 06:30:56;;;;;;;7.83;5.10;;;10.80;99.90;;;;;;5115079;27;20478;-71
2021/05/20 06:33:23;;;;;;;6.50;4.90;;;10.60;99.90;;;;;;5116583;27;20515;-71
2021/05/20 06:35:51;;;;;;;7.17;4.57;;;10.50;99.90;;;;;;5116476;27;20578;-71
2021/05/20 06:38:18;;;;;;;8.07;4.83;;;10.90;99.90;;;;;;5116770;27;20862;-71
2021/05/20 06:40:46;;;;;;;6.87;4.93;;;10.90;99.90;;;;;;5115411;28;20469;-71
2021/05/20 06:43:16;;;;;;;7.83;5.40;;;11.10;99.90;;;;;;5114712;28;20473;-71
2021/05/20 06:45:44;;;;;;;8.00;5.70;;;11.60;99.90;;;;;;5113777;27;20474;-71
2021/05/20 06:48:15;;;;;;;7.43;5.87;;;11.80;99.90;;;;;;5113630;27;20543;-71
2021/05/20 06:50:43;;;;;;;6.63;5.23;;;11.40;99.90;;;;;;5110832;28;20498;-72
2021/05/20 06:53:12;;;;;;;6.93;5.00;;;11.40;99.90;;;;;;5098146;28;20535;-72
2021/05/20 06:55:39;;;;;;;8.00;4.10;;;11.30;99.90;;;;;;5114011;27;20455;-71
2021/05/20 07:00:53;;;;;;;6.33;2.87;;;11.60;99.90;;;;;;5118512;27;20572;-71
2021/05/20 07:03:22;;;;;;;4.37;2.90;;;11.50;99.90;;;;;;5111267;27;20455;-71
2021/05/20 07:05:54;;;;;;;8.67;4.10;;;11.50;99.90;;;;;;5098546;27;20475;-72
2021/05/20 07:08:23;;;;;;;4.93;2.60;;;11.90;99.90;;;;;;5110820;28;20478;-72
2021/05/20 07:10:52;;;;;;;2.90;2.17;;;12.00;99.90;;;;;;5120252;27;20469;-72
2021/05/20 07:13:19;;;;;;;3.90;2.50;;;12.00;99.90;;;;;;5117922;28;20463;-70
2021/05/20 07:15:49;;;;;;;4.73;2.37;;;12.00;99.90;;;;;;5114993;27;20910;-71
2021/05/20 07:18:17;;;;;;;4.40;2.37;;;11.80;99.90;;;;;;5116214;27;20791;-71
2021/05/20 07:20:56;;;;;;;4.33;2.17;;;11.80;99.90;;;;;;5113996;27;20515;-71
2021/05/20 07:23:30;;;;;;;5.80;2.10;;;12.10;99.90;;;;;;5119993;27;20473;-72
2021/05/20 07:26:03;;;;;;;2.60;2.40;;;12.50;99.90;;;;;;5119550;27;20454;-72
2021/05/20 07:28:32;;;;;;;3.37;2.20;;;12.20;99.90;;;;;;5120189;27;20993;-72
2021/05/20 07:31:02;;;;;;;2.70;2.30;;;12.10;99.90;;;;;;5116616;28;20718;-71
2021/05/20 07:33:30;;;;;;;3.63;2.00;;;12.10;99.90;;;;;;5116430;27;20439;-71
2021/05/20 07:35:59;;;;;;;2.27;1.50;;;12.10;99.90;;;;;;5113743;27;20466;-72
2021/05/20 07:38:31;;;;;;;3.97;1.57;;;12.50;99.90;;;;;;5103123;27;20750;-71
2021/05/20 07:40:59;;;;;;;2.77;1.70;;;12.10;99.90;;;;;;5115098;27;20459;-71
2021/05/20 07:43:26;;;;;;;1.90;1.50;;;12.10;99.90;;;;;;5115982;27;20531;-71
2021/05/20 07:45:56;;;;;;;3.30;2.10;;;12.00;99.90;;;;;;5129496;27;20494;-71
2021/05/20 07:48:47;;;;;;;2.70;1.70;;;12.20;99.90;;;;;;5115222;27;20486;-71
2021/05/20 07:54:11;;;;;;;5.83;1.90;;;12.80;99.90;;;;;;5115440;27;20478;-71
2021/05/20 07:56:38;;;;;;;3.73;1.87;;;12.00;99.90;;;;;;5115564;27;20527;-71
2021/05/20 07:59:07;;;;;;;6.27;2.40;;;12.20;99.90;;;;;;5125538;27;20858;-72
2021/05/20 08:01:35;;;;;;;3.00;2.10;;;12.30;99.90;;;;;;5107185;27;20463;-71
2021/05/20 08:04:07;;;;;;;5.77;2.30;;;12.80;99.90;;;;;;5115987;28;20547;-75
2021/05/20 08:06:39;;;;;;;4.70;2.10;;;12.90;99.90;;;;;;5104157;28;20594;-70
2021/05/20 08:09:16;;;;;;;3.50;2.17;;;13.00;99.90;;;;;;5111787;28;20475;-70
2021/05/20 08:11:48;;;;;;;3.33;1.90;;;13.30;99.90;;;;;;5114976;27;20495;-70
2021/05/20 08:14:15;;;;;;;2.70;1.80;;;12.80;99.90;;;;;;5097222;27;20463;-71
2021/05/20 08:16:42;;;;;;;2.20;1.80;;;13.10;99.90;;;;;;5109138;27;20481;-70
2021/05/20 08:19:11;;;;;;;2.90;2.20;;;13.10;99.90;;;;;;5117755;27;20494;-70
2021/05/20 08:21:41;;;;;;;3.10;1.90;;;13.30;99.90;;;;;;5117587;27;20733;-70
2021/05/20 08:24:09;;;;;;;3.47;1.97;;;13.50;99.90;;;;;;5117280;27;20557;-70
2021/05/20 08:26:41;;;;;;;3.43;2.03;;;13.50;99.90;;;;;;5116798;27;20771;-70
2021/05/20 08:29:09;;;;;;;2.93;1.67;;;;;;;;;;5117120;27;20966;-69
2021/05/20 08:31:37;;;;;;;3.70;1.77;;;;;;;;;;5102265;28;20463;-70
2021/05/20 08:34:10;;;;;;;2.43;1.73;;;;;;;;;;5117303;27;20466;-69
2021/05/20 08:36:41;;;;;;;4.60;1.90;;;;;;;;;;5104789;28;20451;-70
2021/05/20 08:39:08;;;;;;;3.53;1.77;;;;;;;;;;5112197;27;20525;-71
2021/05/20 08:41:36;;;;;;;3.17;1.53;;;;;;;;;;5113790;27;20443;-70
2021/05/20 08:44:25;;;;;;;3.73;2.30;;;;;;;;;;5113331;27;20455;-71
2021/05/20 08:46:59;;;;;;;5.13;1.77;;;;;;;;;;5117944;27;20474;-72
2021/05/20 08:49:28;;;;;;;4.87;2.10;;;;;;;;;;5116701;28;20859;-70
2021/05/20 08:51:56;;;;;;;4.50;1.50;;;;;;;;;;5101811;27;20848;-70
2021/05/20 08:54:24;;;;;;;4.63;2.17;;;;;;;;;;5116528;27;20459;-70
2021/05/20 08:56:55;;;;;;;2.40;1.60;;;;;;;;;;5116806;27;20885;-70
2021/05/20 08:59:26;;;;;;;2.53;1.60;;;;;;;;;;5117045;27;20459;-71
2021/05/20 09:01:55;;;;;;;2.20;1.33;;;;;;;;;;5115899;27;20463;-70
2021/05/20 09:04:23;;;;;;;2.27;1.37;;;;;;;;;;5117215;27;20482;-70
2021/05/20 09:06:55;;;;;;;4.53;1.90;;;;;;;;;;5115418;28;20491;-70
2021/05/20 09:09:25;;;;;;;5.10;1.40;;;;;;;;;;5116500;27;20491;-70
2021/05/20 09:11:54;;;;;;;1.70;1.10;;;;;;;;;;5120433;27;20435;-70
2021/05/20 09:14:37;;;;;;;4.20;1.20;;;;;;;;;;5116008;27;20452;-71
2021/05/20 09:17:14;;;;;;;2.50;1.63;;;;;;;;;;5108314;28;20900;-72
2021/05/20 09:19:46;;;;;;;4.67;1.63;;;;;;;;;;5115575;27;20894;-71
2021/05/20 09:22:13;;;;;;;2.57;0.93;;;;;;;;;;5115869;27;20450;-70
2021/05/20 09:24:46;;;;;;;3.53;1.03;;;;;;;;;;5116129;27;20451;-71
2021/05/20 09:27:27;;;;;;;2.47;1.37;;;;;;;;;;5115378;27;20485;-71
2021/05/20 09:30:16;;;;;;;3.77;1.23;;;;;;;;;;5102550;28;20487;-72
2021/05/20 09:32:46;;;;;;;2.97;1.60;;;;;;;;;;5109165;27;20448;-71
2021/05/20 09:35:13;;;;;;;5.53;1.40;;;;;;;;;;5110327;27;20460;-70
2021/05/20 09:37:51;;;;;;;4.03;1.77;;;;;;;;;;5100423;27;20454;-71
2021/05/20 09:40:19;;;;;;;2.70;1.33;;;;;;;;;;5108221;27;20452;-71
2021/05/20 09:42:47;;;;;;;4.87;1.47;;;;;;;;;;5107757;27;20479;-71
2021/05/20 09:45:19;;;;;;;2.90;1.23;;;;;;;;;;5103134;28;20470;-72
2021/05/20 09:47:47;;;;;;;2.10;1.43;;;;;;;;;;5109385;27;20509;-72
2021/05/20 09:50:15;;;;;;;9.63;3.63;;;;;;;;;;5112218;27;20467;-71
2021/05/20 09:52:42;;;;;;;2.97;1.43;;;;;;;;;;5107578;27;20784;-70
2021/05/20 09:55:26;;;;;;;3.00;1.57;;;;;;;;;;5107234;27;20898;-70
2021/05/20 09:57:54;;;;;;;2.80;1.30;;;;;;;;;;5094840;27;20920;-71
2021/05/20 10:00:41;;;;;;;4.00;2.97;;;;;;;;;;5113435;27;20548;-70
2021/05/20 10:03:13;;;;;;;3.30;1.50;;;;;;;;;;5113327;27;20470;-72
2021/05/20 10:05:43;;;;;;;2.83;1.40;;;;;;;;;;5096898;28;20486;-72
2021/05/20 10:08:14;;;;;;;3.10;1.70;;;;;;;;;;5098684;27;20574;-72
2021/05/20 10:10:47;;;;;;;4.57;1.80;;;;;;;;;;5096084;28;20482;-72
2021/05/20 10:13:15;;;;;;;2.47;1.67;;;;;;;;;;5113363;27;20872;-71
2021/05/20 10:15:47;;;;;;;3.00;1.33;;;;;;;;;;5115409;27;20445;-71
2021/05/20 10:18:15;;;;;;;5.90;2.20;;;;;;;;;;5114724;27;20886;-71
2021/05/20 10:20:45;;;;;;;4.03;1.77;;;;;;;;;;5119326;27;20442;-71
2021/05/20 10:23:13;;;;;;;2.93;1.60;;;;;;;;;;5117698;27;20451;-71
2021/05/20 10:25:42;;;;;;;5.03;1.53;;;;;;;;;;5116378;27;20447;-70
2021/05/20 10:28:20;;;;;;;2.60;1.50;;;;;;;;;;5115128;27;20550;-71
2021/05/20 10:30:56;;;;;;;2.87;1.27;;;;;;;;;;5115199;27;20535;-72
2021/05/20 10:33:29;;;;;;;3.23;1.60;;;;;;;;;;5103695;27;20559;-71
2021/05/20 10:35:58;;;;;;;2.40;1.40;;;;;;;;;;5122161;27;20445;-71
2021/05/20 10:38:37;;;;;;;4.40;2.03;;;;;;;;;;5134586;27;20465;-72
2021/05/20 10:41:09;;;;;;;2.70;1.80;;;;;;;;;;5115085;27;20451;-71
2021/05/20 10:43:36;;;;;;;2.57;1.03;;;;;;;;;;5095071;28;20444;-72
2021/05/20 10:46:06;;;;;;;3.10;1.37;;;;;;;;;;5102737;27;20458;-71
2021/05/20 10:48:37;;;;;;;1.90;1.10;;;;;;;;;;5115277;27;20490;-72
2021/05/20 10:51:06;;;;;;;8.33;1.67;;;;;;;;;;5114662;27;20439;-71
2021/05/20 10:53:46;;;;;;;2.77;1.50;;;;;;;;;;5114657;27;20455;-71
2021/05/20 10:56:37;;;;;;;2.83;1.67;;;;;;;;;;5115817;27;20997;-71
2021/05/20 10:59:24;;;;;;;3.10;1.50;;;;;;;;;;5116054;27;20538;-70
2021/05/20 11:01:52;;;;;;;3.40;2.27;;;;;;;;;;5114571;27;20474;-69
2021/05/20 11:04:33;;;;;;;12.13;7.57;;;;;;;;;;5114380;27;20550;-70
2021/05/20 11:07:01;;;;;;;2.87;1.60;;;;;;;;;;5113801;27;20950;-70
2021/05/20 11:09:48;;;;;;;4.00;1.70;;;;;;;;;;5115227;27;20442;-70
2021/05/20 11:12:17;;;;;;;4.63;1.63;;;;;;;;;;5114040;28;20461;-70
2021/05/20 11:14:51;;;;;;;2.20;1.37;;;;;;;;;;5114002;27;20522;-70
2021/05/20 11:17:38;;;;;;;4.43;1.33;;;;;;;;;;5106805;28;20468;-70
2021/05/20 11:20:42;;;;;;;4.03;1.50;;;;;;;;;;5109226;28;20739;-70
2021/05/20 11:23:25;;;;;;;2.87;1.40;;;;;;;;;;5114164;28;20510;-70
2021/05/20 11:26:02;;;;;;;2.23;1.73;;;;;;;;;;5114526;27;20470;-69
2021/05/20 11:28:30;;;;;;;7.53;2.23;;;;;;;;;;5113737;27;20486;-70
2021/05/20 11:31:03;;;;;;;3.33;1.80;;;;;;;;;;5115146;27;20511;-69
2021/05/20 11:33:35;;;;;;;2.90;1.70;;;;;;;;;;5114775;27;20466;-69
2021/05/20 11:36:12;;;;;;;3.10;2.13;;;;;;;;;;5114130;27;20496;-70
2021/05/20 11:38:42;;;;;;;5.10;1.70;;;;;;;;;;5116196;27;20450;-70
2021/05/20 11:41:13;;;;;;;2.60;2.07;;;;;;;;;;5117028;28;20440;-72
2021/05/20 11:43:41;;;;;;;4.63;2.57;;;;;;;;;;5117013;27;20458;-70
2021/05/20 11:46:23;;;;;;;2.83;2.40;;;;;;;;;;5118082;27;20790;-70
2021/05/20 11:49:03;;;;;;;2.60;2.10;;;;;;;;;;5112355;27;20486;-71
2021/05/20 11:51:44;;;;;;;3.33;2.20;;;;;;;;;;5117004;27;20473;-71
2021/05/20 11:54:13;;;;;;;6.70;2.60;;;;;;;;;;5115231;28;20442;-72
2021/05/20 11:56:41;;;;;;;4.10;2.43;;;;;;;;;;5117649;27;20846;-71
2021/05/20 11:59:11;;;;;;;3.43;2.37;;;;;;;;;;5117829;28;20439;-71
2021/05/20 12:01:38;;;;;;;3.43;2.53;;;;;;;;;;5117161;28;20866;-71
2021/05/20 12:04:06;;;;;;;5.27;4.20;;;;;;;;;;5116921;28;20451;-72
2021/05/20 12:06:35;;;;;;;3.50;2.10;;;;;;;;;;5116753;28;20451;-71
2021/05/20 12:09:09;;;;;;;2.87;2.13;;;;;;;;;;5113344;27;20581;-71
2021/05/20 12:11:38;;;;;;;2.70;1.80;;;;;;;;;;5118325;27;20459;-72
2021/05/20 12:14:22;;;;;;;6.03;2.20;;;;;;;;;;5111830;27;20545;-72
2021/05/20 12:16:58;;;;;;;3.43;1.80;;;;;;;;;;5116733;28;20539;-71
2021/05/20 12:19:26;;;;;;;3.83;1.83;;;;;;;;;;5116593;28;20457;-71
2021/05/20 12:22:00;;;;;;;5.23;1.80;;;;;;;;;;5118058;27;20503;-71
2021/05/20 12:24:32;;;;;;;2.63;1.40;;;;;;;;;;5115136;27;20519;-71
2021/05/20 12:27:09;;;;;;;2.30;1.43;;;;;;;;;;5117732;27;20479;-71
2021/05/20 12:29:37;;;;;;;2.50;1.80;;;;;;;;;;5118023;27;20450;-72
2021/05/20 12:32:04;;;;;;;4.30;1.83;;;;;;;;;;5117520;27;20446;-71
2021/05/20 12:34:32;;;;;;;2.10;1.30;;;;;;;;;;5118220;27;20451;-70
2021/05/20 12:37:03;;;;;;;2.60;1.60;;;;;;;;;;5118020;27;20471;-72
2021/05/20 12:39:30;;;;;;;3.70;1.63;;;;;;;;;;5116852;27;20867;-71
2021/05/20 12:41:58;;;;;;;4.27;1.87;;;;;;;;;;5115115;27;20795;-71
2021/05/20 12:44:27;;;;;;;4.10;2.07;;;;;;;;;;5116797;27;20474;-71
2021/05/20 12:46:54;;;;;;;2.53;2.00;;;;;;;;;;5118117;27;20474;-71
2021/05/20 12:49:24;;;;;;;4.03;1.77;;;;;;;;;;5116952;27;20455;-71
2021/05/20 12:52:02;;;;;;;3.40;2.20;;;;;;;;;;5128624;27;20457;-70
2021/05/20 12:54:32;;;;;;;2.80;1.77;;;;;;;;;;5107543;28;20455;-70
2021/05/20 12:57:08;;;;;;;3.30;2.20;;;;;;;;;;5119655;27;20447;-72
2021/05/20 12:59:43;;;;;;;5.27;2.13;;;;;;;;;;5137672;27;20736;-71
2021/05/20 13:02:17;;;;;;;3.50;2.30;;;;;;;;;;5128696;27;20529;-73
2021/05/20 13:04:47;;;;;;;3.50;2.30;;;;;;;;;;5115990;27;20464;-72
2021/05/20 13:07:16;;;;;;;2.50;1.40;;;;;;;;;;5107089;27;20784;-70
2021/05/20 13:09:44;;;;;;;2.43;1.57;;;;;;;;;;5106572;27;20474;-73
2021/05/20 13:12:14;;;;;;;7.73;4.00;;;;;;;;;;5115922;28;20512;-71
2021/05/20 13:14:45;;;;;;;3.77;1.50;;;;;;;;;;5116686;27;20468;-72
2021/05/20 13:17:23;;;;;;;2.13;1.30;;;;;;;;;;5097009;28;20447;-72
2021/05/20 13:20:26;;;;;;;1.83;1.10;;;;;;;;;;5102745;28;20459;-72
2021/05/20 13:23:19;;;;;;;1.90;1.43;;;;;;;;;;5119184;28;20548;-72
2021/05/20 13:25:53;;;;;;;2.43;1.07;;;;;;;;;;5117575;28;20527;-72
2021/05/20 13:28:26;;;;;;;1.80;0.80;;;;;;;;;;5120254;28;20478;-73
2021/05/20 13:31:03;;;;;;;2.53;1.00;;;;;;;;;;5103891;27;20520;-72
2021/05/20 13:33:44;;;;;;;2.83;0.97;;;;;;;;;;5110767;27;20759;-71
2021/05/20 13:36:11;;;;;;;4.13;0.97;;;;;;;;;;5134481;27;20511;-71
2021/05/20 13:38:48;;;;;;;2.03;1.00;;;;;;;;;;5115096;27;20831;-71
2021/05/20 13:43:57;;;;;;;2.87;1.10;;;;;;;;;;5116498;28;20881;-71
2021/05/20 13:46:30;;;;;;;1.70;0.90;;;;;;;;;;5115369;28;20546;-71
2021/05/20 13:48:57;;;;;;;3.93;1.03;;;;;;;;;;5118030;27;20546;-70
2021/05/20 13:51:27;;;;;;;2.10;0.97;;;;;;;;;;5114667;28;20450;-72
2021/05/20 13:54:00;;;;;;;1.67;1.20;;;;;;;;;;5104705;27;20447;-71
2021/05/20 13:56:28;;;;;;;1.87;1.10;;;;;;;;;;5105552;27;20498;-72
2021/05/20 13:58:55;;;;;;;2.00;0.80;;;;;;;;;;5096678;28;20459;-72
2021/05/20 14:01:27;;;;;;;2.20;1.40;;;;;;;;;;5100805;28;20471;-71